FIN822 EGLL-EFHK
Flight info
| Callsign | FIN822 |
|---|---|
| Flight time | N/A |
| Altitude | 38000 |
| Route | BPK Q295 MATCH P144 SAMHO DCT LARGA DCT SOPTO DCT RIRIP Y364 LAKUT |
| Aircraft | A359/H-SDE2E3GHIJ3J4J5LM1ORWXY/LB1D1 |
Departure
| Time | 2026-05-07 16:31 |
|---|---|
| Airport | London Heathrow Airport (EGLL) |
Arrival
| Time | N/A |
|---|---|
| Airport | Helsinki Vantaa Airport (EFHK) |
| Time | Latitude | Longitude | Altitude | Speed | Heading |
|---|---|---|---|---|---|
| 2026-05-07 16:08 | 51.46838 | -0.45576 | 93 ft | 0 kts | 0° |
| 2026-05-07 16:15 | 51.46835 | -0.45576 | 93 ft | 1 kts | 0° |
| 2026-05-07 16:15 | 51.46827 | -0.45576 | 95 ft | 4 kts | 359° |
| 2026-05-07 16:16 | 51.46800 | -0.45572 | 93 ft | 4 kts | 345° |
| 2026-05-07 16:16 | 51.46775 | -0.45556 | 95 ft | 4 kts | 324° |
| 2026-05-07 16:16 | 51.46757 | -0.45527 | 91 ft | 4 kts | 298° |
| 2026-05-07 16:16 | 51.46749 | -0.45488 | 93 ft | 2 kts | 270° |
| 2026-05-07 16:17 | 51.46749 | -0.45482 | 91 ft | 1 kts | 270° |
| 2026-05-07 16:17 | 51.46749 | -0.45481 | 91 ft | 0 kts | 270° |
| 2026-05-07 16:18 | 51.46749 | -0.45480 | 91 ft | 0 kts | 270° |
| 2026-05-07 16:19 | 51.46750 | -0.45521 | 92 ft | 11 kts | 272° |
| 2026-05-07 16:19 | 51.46749 | -0.45683 | 97 ft | 14 kts | 269° |
| 2026-05-07 16:19 | 51.46749 | -0.45856 | 96 ft | 17 kts | 270° |
| 2026-05-07 16:20 | 51.46748 | -0.46060 | 97 ft | 20 kts | 269° |
| 2026-05-07 16:20 | 51.46746 | -0.46253 | 97 ft | 15 kts | 269° |
| 2026-05-07 16:20 | 51.46747 | -0.46435 | 97 ft | 16 kts | 271° |
| 2026-05-07 16:20 | 51.46748 | -0.46550 | 97 ft | 6 kts | 269° |
| 2026-05-07 16:21 | 51.46748 | -0.46557 | 97 ft | 0 kts | 270° |
| 2026-05-07 16:23 | 51.46748 | -0.46637 | 96 ft | 12 kts | 270° |
| 2026-05-07 16:23 | 51.46747 | -0.46762 | 97 ft | 13 kts | 269° |
| 2026-05-07 16:24 | 51.46746 | -0.46920 | 97 ft | 15 kts | 269° |
| 2026-05-07 16:24 | 51.46746 | -0.47101 | 96 ft | 17 kts | 269° |
| 2026-05-07 16:24 | 51.46745 | -0.47293 | 95 ft | 19 kts | 269° |
| 2026-05-07 16:24 | 51.46744 | -0.47513 | 93 ft | 21 kts | 269° |
| 2026-05-07 16:25 | 51.46743 | -0.47735 | 93 ft | 12 kts | 270° |
| 2026-05-07 16:25 | 51.46743 | -0.47852 | 93 ft | 6 kts | 270° |
| 2026-05-07 16:25 | 51.46743 | -0.47904 | 93 ft | 8 kts | 270° |
| 2026-05-07 16:25 | 51.46743 | -0.48018 | 93 ft | 12 kts | 269° |
| 2026-05-07 16:26 | 51.46742 | -0.48164 | 94 ft | 12 kts | 270° |
| 2026-05-07 16:26 | 51.46741 | -0.48373 | 93 ft | 12 kts | 269° |
| 2026-05-07 16:26 | 51.46741 | -0.48456 | 95 ft | 10 kts | 270° |
| 2026-05-07 16:26 | 51.46740 | -0.48586 | 93 ft | 12 kts | 270° |
| 2026-05-07 16:27 | 51.46737 | -0.48697 | 94 ft | 9 kts | 256° |
| 2026-05-07 16:27 | 51.46709 | -0.48734 | 97 ft | 0 kts | 197° |
| 2026-05-07 16:28 | 51.46708 | -0.48734 | 97 ft | 2 kts | 197° |
| 2026-05-07 16:28 | 51.46655 | -0.48750 | 94 ft | 8 kts | 188° |
| 2026-05-07 16:28 | 51.46607 | -0.48769 | 97 ft | 0 kts | 197° |
| 2026-05-07 16:29 | 51.46550 | -0.48785 | 97 ft | 16 kts | 183° |
| 2026-05-07 16:29 | 51.46479 | -0.48701 | 98 ft | 12 kts | 103° |
| 2026-05-07 16:29 | 51.46478 | -0.48555 | 94 ft | 10 kts | 89° |
| 2026-05-07 16:30 | 51.46478 | -0.48549 | 96 ft | 1 kts | 89° |
| 2026-05-07 16:30 | 51.46479 | -0.48147 | 94 ft | 76 kts | 90° |
| 2026-05-07 16:30 | 51.46482 | -0.46911 | 96 ft | 143 kts | 90° |
| 2026-05-07 16:30 | 51.46476 | -0.45102 | 522 ft | 165 kts | 92° |
| 2026-05-07 16:31 | 51.46454 | -0.43276 | 1410 ft | 166 kts | 92° |
| 2026-05-07 16:31 | 51.46519 | -0.41396 | 2066 ft | 181 kts | 74° |
| 2026-05-07 16:31 | 51.47330 | -0.39698 | 2492 ft | 206 kts | 41° |
| 2026-05-07 16:31 | 51.48464 | -0.38121 | 3010 ft | 227 kts | 42° |
| 2026-05-07 16:32 | 51.49667 | -0.36258 | 3477 ft | 251 kts | 46° |
| 2026-05-07 16:32 | 51.50878 | -0.34166 | 4275 ft | 259 kts | 48° |
| 2026-05-07 16:32 | 51.51853 | -0.31696 | 5122 ft | 266 kts | 67° |
| 2026-05-07 16:32 | 51.52517 | -0.28911 | 5721 ft | 268 kts | 71° |
| 2026-05-07 16:33 | 51.53130 | -0.26074 | 5978 ft | 269 kts | 71° |
| 2026-05-07 16:33 | 51.53812 | -0.23268 | 5996 ft | 271 kts | 63° |
| 2026-05-07 16:33 | 51.55018 | -0.20966 | 5996 ft | 272 kts | 36° |
| 2026-05-07 16:33 | 51.56677 | -0.19538 | 5991 ft | 272 kts | 23° |
| 2026-05-07 16:34 | 51.58426 | -0.18358 | 6054 ft | 274 kts | 21° |
| 2026-05-07 16:34 | 51.60219 | -0.17415 | 6069 ft | 274 kts | 15° |
| 2026-05-07 16:34 | 51.62058 | -0.16583 | 6075 ft | 274 kts | 15° |
| 2026-05-07 16:34 | 51.63896 | -0.15757 | 6074 ft | 274 kts | 15° |
| 2026-05-07 16:35 | 51.65734 | -0.14924 | 6073 ft | 274 kts | 15° |
| 2026-05-07 16:35 | 51.67576 | -0.14088 | 6071 ft | 275 kts | 15° |
| 2026-05-07 16:35 | 51.69413 | -0.13244 | 6077 ft | 275 kts | 15° |
| 2026-05-07 16:35 | 51.71252 | -0.12396 | 6079 ft | 274 kts | 15° |
| 2026-05-07 16:36 | 51.73057 | -0.11407 | 6071 ft | 275 kts | 25° |
| 2026-05-07 16:36 | 51.74547 | -0.09518 | 6074 ft | 274 kts | 53° |
| 2026-05-07 16:36 | 51.75358 | -0.06761 | 6071 ft | 272 kts | 74° |
| 2026-05-07 16:36 | 51.75745 | -0.04095 | 6066 ft | 273 kts | 81° |
| 2026-05-07 16:37 | 51.76013 | -0.01103 | 6061 ft | 273 kts | 84° |
| 2026-05-07 16:37 | 51.76207 | 0.01906 | 6109 ft | 272 kts | 85° |
| 2026-05-07 16:37 | 51.76389 | 0.04961 | 6585 ft | 276 kts | 85° |
| 2026-05-07 16:37 | 51.76588 | 0.08060 | 7520 ft | 278 kts | 85° |
| 2026-05-07 16:38 | 51.76808 | 0.11175 | 8573 ft | 281 kts | 84° |
| 2026-05-07 16:38 | 51.77047 | 0.14319 | 9581 ft | 285 kts | 84° |
| 2026-05-07 16:38 | 51.77304 | 0.17540 | 10450 ft | 294 kts | 84° |
| 2026-05-07 16:38 | 51.77586 | 0.20933 | 10903 ft | 317 kts | 83° |
| 2026-05-07 16:39 | 51.78252 | 0.24468 | 11320 ft | 341 kts | 65° |
| 2026-05-07 16:39 | 51.79614 | 0.27690 | 12041 ft | 352 kts | 51° |
| 2026-05-07 16:39 | 51.81273 | 0.30649 | 12920 ft | 359 kts | 46° |
| 2026-05-07 16:39 | 51.83070 | 0.33489 | 13828 ft | 364 kts | 44° |
| 2026-05-07 16:40 | 51.84932 | 0.36292 | 14600 ft | 369 kts | 43° |
| 2026-05-07 16:40 | 51.86835 | 0.39137 | 15350 ft | 375 kts | 43° |
| 2026-05-07 16:40 | 51.88734 | 0.42006 | 16103 ft | 380 kts | 44° |
| 2026-05-07 16:40 | 51.90663 | 0.44967 | 16886 ft | 385 kts | 44° |
| 2026-05-07 16:41 | 51.92605 | 0.47988 | 17673 ft | 390 kts | 44° |
| 2026-05-07 16:41 | 51.94568 | 0.51069 | 18480 ft | 395 kts | 44° |
| 2026-05-07 16:41 | 51.96556 | 0.54207 | 19203 ft | 400 kts | 44° |
| 2026-05-07 16:41 | 51.98560 | 0.57379 | 19979 ft | 404 kts | 44° |
| 2026-05-07 16:42 | 52.00576 | 0.60574 | 20710 ft | 408 kts | 44° |
| 2026-05-07 16:42 | 52.02729 | 0.63627 | 21436 ft | 412 kts | 37° |
| 2026-05-07 16:42 | 52.05022 | 0.66452 | 22169 ft | 416 kts | 36° |
| 2026-05-07 16:42 | 52.07387 | 0.69235 | 22900 ft | 420 kts | 35° |
| 2026-05-07 16:43 | 52.09792 | 0.71994 | 23614 ft | 425 kts | 34° |
| 2026-05-07 16:43 | 52.12232 | 0.74765 | 24207 ft | 429 kts | 34° |
| 2026-05-07 16:43 | 52.14691 | 0.77554 | 24811 ft | 432 kts | 34° |
| 2026-05-07 16:43 | 52.17141 | 0.80344 | 25417 ft | 436 kts | 34° |
| 2026-05-07 16:44 | 52.19636 | 0.83196 | 26010 ft | 440 kts | 35° |
| 2026-05-07 16:44 | 52.22149 | 0.86081 | 26612 ft | 443 kts | 35° |
| 2026-05-07 16:44 | 52.24683 | 0.88998 | 27205 ft | 447 kts | 35° |
| 2026-05-07 16:44 | 52.27234 | 0.91943 | 27788 ft | 450 kts | 35° |
| 2026-05-07 16:45 | 52.29795 | 0.94900 | 28465 ft | 451 kts | 36° |
| 2026-05-07 16:45 | 52.32354 | 0.97861 | 29162 ft | 452 kts | 36° |
| 2026-05-07 16:45 | 52.34924 | 1.00841 | 29709 ft | 455 kts | 37° |
| 2026-05-07 16:45 | 52.37515 | 1.03850 | 30259 ft | 457 kts | 37° |
| 2026-05-07 16:46 | 52.40117 | 1.06876 | 30670 ft | 461 kts | 37° |
| 2026-05-07 16:46 | 52.42748 | 1.09941 | 31077 ft | 465 kts | 37° |
| 2026-05-07 16:46 | 52.45395 | 1.13029 | 31463 ft | 469 kts | 37° |
| 2026-05-07 16:46 | 52.48060 | 1.16142 | 31874 ft | 472 kts | 37° |
| 2026-05-07 16:47 | 52.50710 | 1.19241 | 32240 ft | 475 kts | 37° |
| 2026-05-07 16:47 | 52.53412 | 1.22405 | 32660 ft | 477 kts | 37° |
| 2026-05-07 16:47 | 52.56118 | 1.25578 | 33120 ft | 478 kts | 37° |
| 2026-05-07 16:47 | 52.58831 | 1.28765 | 33455 ft | 482 kts | 37° |
| 2026-05-07 16:48 | 52.61565 | 1.31982 | 33765 ft | 485 kts | 37° |
| 2026-05-07 16:48 | 52.64319 | 1.35228 | 34072 ft | 488 kts | 37° |
| 2026-05-07 16:48 | 52.67083 | 1.38491 | 34404 ft | 488 kts | 37° |
| 2026-05-07 16:48 | 52.69845 | 1.41755 | 34713 ft | 490 kts | 37° |
| 2026-05-07 16:49 | 52.72618 | 1.45038 | 35016 ft | 491 kts | 37° |
| 2026-05-07 16:49 | 52.75395 | 1.48331 | 35318 ft | 493 kts | 37° |
| 2026-05-07 16:49 | 52.78177 | 1.51636 | 35705 ft | 490 kts | 37° |
| 2026-05-07 16:49 | 52.80942 | 1.54926 | 36112 ft | 489 kts | 37° |
| 2026-05-07 16:50 | 52.83715 | 1.58230 | 36329 ft | 492 kts | 37° |
| 2026-05-07 16:50 | 52.86496 | 1.61551 | 36569 ft | 494 kts | 37° |
| 2026-05-07 16:50 | 52.89288 | 1.64889 | 36832 ft | 496 kts | 37° |
| 2026-05-07 16:50 | 52.92093 | 1.68248 | 37105 ft | 496 kts | 36° |
| 2026-05-07 16:51 | 52.94888 | 1.71601 | 37367 ft | 498 kts | 36° |
| 2026-05-07 16:51 | 52.97701 | 1.74980 | 37642 ft | 498 kts | 36° |
| 2026-05-07 16:51 | 53.00476 | 1.78319 | 37911 ft | 499 kts | 36° |
| 2026-05-07 16:51 | 53.03296 | 1.81718 | 38081 ft | 501 kts | 36° |
| 2026-05-07 16:52 | 53.06112 | 1.85117 | 38099 ft | 500 kts | 36° |
| 2026-05-07 16:52 | 53.11741 | 1.91930 | 38097 ft | 500 kts | 36° |
| 2026-05-07 16:53 | 53.17368 | 1.98764 | 38098 ft | 500 kts | 36° |
| 2026-05-07 16:53 | 53.22993 | 2.05618 | 38094 ft | 500 kts | 36° |
| 2026-05-07 16:54 | 53.28629 | 2.12426 | 38104 ft | 499 kts | 35° |
| 2026-05-07 16:54 | 53.34380 | 2.18931 | 38100 ft | 499 kts | 34° |
| 2026-05-07 16:55 | 53.40110 | 2.25350 | 38103 ft | 499 kts | 34° |
| 2026-05-07 16:55 | 53.45860 | 2.31876 | 38109 ft | 499 kts | 34° |
| 2026-05-07 16:56 | 53.51560 | 2.38525 | 38110 ft | 498 kts | 37° |
| 2026-05-07 16:56 | 53.59850 | 2.49099 | 38111 ft | 498 kts | 38° |
| 2026-05-07 16:57 | 53.65377 | 2.56183 | 38108 ft | 498 kts | 37° |
| 2026-05-07 16:57 | 53.70873 | 2.63177 | 38114 ft | 498 kts | 37° |
| 2026-05-07 16:58 | 53.76415 | 2.70226 | 38112 ft | 497 kts | 37° |
| 2026-05-07 16:58 | 53.81933 | 2.77267 | 38114 ft | 497 kts | 37° |
| 2026-05-07 16:59 | 53.87454 | 2.84338 | 38117 ft | 497 kts | 37° |
| 2026-05-07 16:59 | 53.92970 | 2.91428 | 38113 ft | 497 kts | 37° |
| 2026-05-07 17:00 | 53.98478 | 2.98533 | 38118 ft | 497 kts | 37° |
| 2026-05-07 17:00 | 54.03981 | 3.05655 | 38115 ft | 497 kts | 37° |
| 2026-05-07 17:01 | 54.09438 | 3.12744 | 38108 ft | 496 kts | 38° |
| 2026-05-07 17:01 | 54.14938 | 3.19912 | 38113 ft | 496 kts | 38° |
| 2026-05-07 17:02 | 54.20420 | 3.27080 | 38117 ft | 496 kts | 38° |
| 2026-05-07 17:02 | 54.25896 | 3.34266 | 38111 ft | 496 kts | 38° |
| 2026-05-07 17:03 | 54.31360 | 3.41459 | 38117 ft | 496 kts | 38° |
| 2026-05-07 17:03 | 54.36790 | 3.48633 | 38117 ft | 496 kts | 38° |
| 2026-05-07 17:04 | 54.42247 | 3.55868 | 38117 ft | 496 kts | 38° |
| 2026-05-07 17:04 | 54.47702 | 3.63124 | 38114 ft | 495 kts | 38° |
| 2026-05-07 17:05 | 54.53148 | 3.70395 | 38117 ft | 495 kts | 38° |
| 2026-05-07 17:05 | 54.58591 | 3.77686 | 38116 ft | 495 kts | 38° |
| 2026-05-07 17:06 | 54.64031 | 3.84997 | 38114 ft | 495 kts | 38° |
| 2026-05-07 17:06 | 54.69459 | 3.92320 | 38123 ft | 495 kts | 38° |
| 2026-05-07 17:07 | 54.74841 | 3.99605 | 38120 ft | 495 kts | 38° |
| 2026-05-07 17:07 | 54.80257 | 4.06963 | 38123 ft | 495 kts | 38° |
| 2026-05-07 17:08 | 54.85636 | 4.14427 | 38116 ft | 495 kts | 42° |
| 2026-05-07 17:08 | 54.90453 | 4.22956 | 38120 ft | 494 kts | 47° |
| 2026-05-07 17:09 | 54.95127 | 4.31754 | 38123 ft | 495 kts | 47° |
| 2026-05-07 17:09 | 54.99767 | 4.40613 | 38124 ft | 495 kts | 47° |
| 2026-05-07 17:10 | 55.04386 | 4.49445 | 38119 ft | 495 kts | 47° |
| 2026-05-07 17:10 | 55.09021 | 4.58320 | 38122 ft | 495 kts | 47° |
| 2026-05-07 17:11 | 55.13653 | 4.67214 | 38123 ft | 495 kts | 47° |
| 2026-05-07 17:11 | 55.18279 | 4.76130 | 38124 ft | 495 kts | 47° |
| 2026-05-07 17:12 | 55.22904 | 4.85078 | 38125 ft | 496 kts | 47° |
| 2026-05-07 17:12 | 55.26780 | 4.92602 | 38122 ft | 496 kts | 47° |
| 2026-05-07 17:13 | 55.31234 | 5.01750 | 38129 ft | 496 kts | 53° |
| 2026-05-07 17:13 | 55.35345 | 5.11511 | 38124 ft | 496 kts | 54° |
| 2026-05-07 17:14 | 55.39386 | 5.21360 | 38128 ft | 496 kts | 54° |
| 2026-05-07 17:14 | 55.43409 | 5.31237 | 38125 ft | 497 kts | 54° |
| 2026-05-07 17:15 | 55.47415 | 5.41089 | 38126 ft | 498 kts | 54° |
| 2026-05-07 17:15 | 55.51446 | 5.51029 | 38130 ft | 498 kts | 54° |
| 2026-05-07 17:16 | 55.55465 | 5.60980 | 38125 ft | 497 kts | 54° |
| 2026-05-07 17:16 | 55.59467 | 5.70927 | 38128 ft | 495 kts | 54° |
| 2026-05-07 17:17 | 55.63451 | 5.80871 | 38128 ft | 495 kts | 54° |
| 2026-05-07 17:17 | 55.67430 | 5.90843 | 38128 ft | 496 kts | 54° |
| 2026-05-07 17:18 | 55.71386 | 6.00798 | 38127 ft | 497 kts | 54° |
| 2026-05-07 17:18 | 55.75366 | 6.10851 | 38127 ft | 497 kts | 54° |
| 2026-05-07 17:19 | 55.79334 | 6.20918 | 38124 ft | 497 kts | 54° |
| 2026-05-07 17:19 | 55.83288 | 6.30991 | 38128 ft | 496 kts | 54° |
| 2026-05-07 17:20 | 55.87230 | 6.41076 | 38128 ft | 496 kts | 55° |
| 2026-05-07 17:20 | 55.91167 | 6.51188 | 38122 ft | 496 kts | 55° |
| 2026-05-07 17:21 | 55.95067 | 6.61247 | 38126 ft | 496 kts | 55° |
| 2026-05-07 17:21 | 55.98982 | 6.71386 | 38128 ft | 496 kts | 55° |
| 2026-05-07 17:22 | 56.02894 | 6.81557 | 38128 ft | 496 kts | 55° |
| 2026-05-07 17:22 | 56.06791 | 6.91737 | 38121 ft | 495 kts | 55° |
| 2026-05-07 17:23 | 56.10674 | 7.01919 | 38133 ft | 495 kts | 55° |
| 2026-05-07 17:23 | 56.14554 | 7.12137 | 38125 ft | 496 kts | 55° |
| 2026-05-07 17:24 | 56.18412 | 7.22338 | 38124 ft | 497 kts | 55° |
| 2026-05-07 17:24 | 56.22284 | 7.32620 | 38128 ft | 497 kts | 55° |
| 2026-05-07 17:25 | 56.26151 | 7.42932 | 38127 ft | 497 kts | 56° |
| 2026-05-07 17:25 | 56.30006 | 7.53256 | 38125 ft | 496 kts | 56° |
| 2026-05-07 17:26 | 56.33850 | 7.63597 | 38125 ft | 496 kts | 56° |
| 2026-05-07 17:26 | 56.37690 | 7.73969 | 38128 ft | 497 kts | 56° |
| 2026-05-07 17:27 | 56.41524 | 7.84366 | 38122 ft | 498 kts | 56° |
| 2026-05-07 17:27 | 56.45330 | 7.94737 | 38124 ft | 498 kts | 56° |
| 2026-05-07 17:28 | 56.49151 | 8.05189 | 38125 ft | 498 kts | 56° |
| 2026-05-07 17:28 | 56.52960 | 8.15658 | 38126 ft | 498 kts | 56° |
| 2026-05-07 17:29 | 56.56758 | 8.26140 | 38126 ft | 497 kts | 56° |
| 2026-05-07 17:29 | 56.60537 | 8.36612 | 38125 ft | 498 kts | 56° |
| 2026-05-07 17:30 | 56.64328 | 8.47165 | 38121 ft | 499 kts | 56° |
| 2026-05-07 17:30 | 56.68115 | 8.57753 | 38120 ft | 499 kts | 56° |
| 2026-05-07 17:31 | 56.71886 | 8.68345 | 38118 ft | 499 kts | 56° |
| 2026-05-07 17:31 | 56.75657 | 8.78981 | 38110 ft | 499 kts | 56° |
| 2026-05-07 17:32 | 56.79412 | 8.89619 | 38121 ft | 498 kts | 56° |
| 2026-05-07 17:32 | 56.83159 | 9.00282 | 38107 ft | 500 kts | 56° |
| 2026-05-07 17:33 | 56.86884 | 9.10929 | 38110 ft | 500 kts | 56° |
| 2026-05-07 17:33 | 56.90619 | 9.21652 | 38106 ft | 500 kts | 57° |
| 2026-05-07 17:34 | 56.94348 | 9.32406 | 38115 ft | 500 kts | 57° |
| 2026-05-07 17:34 | 56.98064 | 9.43171 | 38119 ft | 500 kts | 57° |
| 2026-05-07 17:35 | 57.01773 | 9.53963 | 38135 ft | 500 kts | 57° |
| 2026-05-07 17:35 | 57.05486 | 9.64816 | 38128 ft | 501 kts | 57° |
| 2026-05-07 17:36 | 57.07325 | 9.70211 | 37805 ft | 495 kts | 57° |
| 2026-05-07 17:36 | 57.09149 | 9.75573 | 37282 ft | 493 kts | 57° |
| 2026-05-07 17:36 | 57.10973 | 9.80946 | 37133 ft | 497 kts | 57° |
| 2026-05-07 17:36 | 57.12805 | 9.86353 | 37127 ft | 500 kts | 57° |
| 2026-05-07 17:37 | 57.16477 | 9.97233 | 37129 ft | 500 kts | 57° |
| 2026-05-07 17:37 | 57.20139 | 10.08130 | 37128 ft | 500 kts | 57° |
| 2026-05-07 17:38 | 57.23792 | 10.19054 | 37126 ft | 500 kts | 57° |
| 2026-05-07 17:38 | 57.27408 | 10.29916 | 37127 ft | 501 kts | 57° |
| 2026-05-07 17:39 | 57.31057 | 10.40927 | 37127 ft | 502 kts | 57° |
| 2026-05-07 17:39 | 57.34699 | 10.51966 | 37126 ft | 502 kts | 57° |
| 2026-05-07 17:40 | 57.38329 | 10.63023 | 37127 ft | 502 kts | 57° |
| 2026-05-07 17:40 | 57.41949 | 10.74099 | 37127 ft | 502 kts | 57° |
| 2026-05-07 17:41 | 57.45560 | 10.85198 | 37122 ft | 502 kts | 57° |
| 2026-05-07 17:41 | 57.49163 | 10.96326 | 37127 ft | 503 kts | 57° |
| 2026-05-07 17:42 | 57.52746 | 11.07442 | 37130 ft | 504 kts | 57° |
| 2026-05-07 17:42 | 57.56346 | 11.18667 | 37127 ft | 504 kts | 57° |
| 2026-05-07 17:43 | 57.59937 | 11.29917 | 37127 ft | 504 kts | 58° |
| 2026-05-07 17:43 | 57.63512 | 11.41170 | 37124 ft | 504 kts | 58° |
| 2026-05-07 17:44 | 57.67079 | 11.52450 | 37126 ft | 504 kts | 58° |
| 2026-05-07 17:44 | 57.70643 | 11.63776 | 37128 ft | 506 kts | 58° |
| 2026-05-07 17:45 | 57.74182 | 11.75078 | 37130 ft | 508 kts | 58° |